sensor_id;sensor_type;location;lat;lon;timestamp;P1;durP1;ratioP1;P2;durP2;ratioP2
43813;SDS011;29669;55.706;37.656;2022-10-30T00:00:39;3.28;;;2.67;;
43813;SDS011;29669;55.706;37.656;2022-10-30T00:03:27;5.15;;;3.20;;
43813;SDS011;29669;55.706;37.656;2022-10-30T00:06:15;3.20;;;2.90;;
43813;SDS011;29669;55.706;37.656;2022-10-30T00:09:08;4.43;;;3.00;;
43813;SDS011;29669;55.706;37.656;2022-10-30T00:11:57;2.92;;;2.58;;
43813;SDS011;29669;55.706;37.656;2022-10-30T00:14:44;2.20;;;2.00;;
43813;SDS011;29669;55.706;37.656;2022-10-30T00:17:32;3.30;;;2.83;;
43813;SDS011;29669;55.706;37.656;2022-10-30T00:20:20;3.95;;;3.17;;
43813;SDS011;29669;55.706;37.656;2022-10-30T00:23:08;5.75;;;3.15;;
43813;SDS011;29669;55.706;37.656;2022-10-30T00:25:59;5.28;;;3.67;;
43813;SDS011;29669;55.706;37.656;2022-10-30T00:28:49;4.72;;;3.42;;
43813;SDS011;29669;55.706;37.656;2022-10-30T00:31:37;6.40;;;3.25;;
43813;SDS011;29669;55.706;37.656;2022-10-30T00:34:25;5.75;;;3.33;;
43813;SDS011;29669;55.706;37.656;2022-10-30T00:37:13;3.22;;;2.92;;
43813;SDS011;29669;55.706;37.656;2022-10-30T00:40:01;5.15;;;3.28;;
43813;SDS011;29669;55.706;37.656;2022-10-30T00:42:51;3.70;;;2.50;;
43813;SDS011;29669;55.706;37.656;2022-10-30T00:45:40;2.47;;;2.10;;
43813;SDS011;29669;55.706;37.656;2022-10-30T00:48:28;6.97;;;3.42;;
43813;SDS011;29669;55.706;37.656;2022-10-30T00:51:15;2.72;;;2.35;;
43813;SDS011;29669;55.706;37.656;2022-10-30T00:54:05;3.70;;;2.95;;
43813;SDS011;29669;55.706;37.656;2022-10-30T00:56:54;3.75;;;3.08;;
43813;SDS011;29669;55.706;37.656;2022-10-30T00:59:42;6.07;;;3.28;;
43813;SDS011;29669;55.706;37.656;2022-10-30T01:02:30;5.40;;;3.03;;
43813;SDS011;29669;55.706;37.656;2022-10-30T01:05:19;3.72;;;3.33;;
43813;SDS011;29669;55.706;37.656;2022-10-30T01:08:10;4.57;;;3.25;;
43813;SDS011;29669;55.706;37.656;2022-10-30T01:10:58;6.28;;;2.47;;
43813;SDS011;29669;55.706;37.656;2022-10-30T01:13:49;4.38;;;3.50;;
43813;SDS011;29669;55.706;37.656;2022-10-30T01:16:47;5.68;;;3.15;;
43813;SDS011;29669;55.706;37.656;2022-10-30T01:19:51;4.63;;;2.90;;
43813;SDS011;29669;55.706;37.656;2022-10-30T01:32:24;3.30;;;2.92;;
43813;SDS011;29669;55.706;37.656;2022-10-30T01:38:25;4.57;;;3.42;;
43813;SDS011;29669;55.706;37.656;2022-10-30T01:41:21;4.15;;;3.33;;
43813;SDS011;29669;55.706;37.656;2022-10-30T01:44:30;3.47;;;2.35;;
43813;SDS011;29669;55.706;37.656;2022-10-30T01:47:25;6.78;;;3.35;;
43813;SDS011;29669;55.706;37.656;2022-10-30T01:50:32;5.88;;;3.25;;
43813;SDS011;29669;55.706;37.656;2022-10-30T01:56:36;5.43;;;2.90;;
43813;SDS011;29669;55.706;37.656;2022-10-30T02:02:41;4.53;;;3.85;;
43813;SDS011;29669;55.706;37.656;2022-10-30T02:05:35;4.07;;;2.97;;
43813;SDS011;29669;55.706;37.656;2022-10-30T02:08:27;3.95;;;2.95;;
43813;SDS011;29669;55.706;37.656;2022-10-30T02:11:15;5.45;;;3.50;;
43813;SDS011;29669;55.706;37.656;2022-10-30T02:14:04;6.20;;;3.85;;
43813;SDS011;29669;55.706;37.656;2022-10-30T02:16:55;5.45;;;2.22;;
43813;SDS011;29669;55.706;37.656;2022-10-30T02:19:45;4.82;;;3.40;;
43813;SDS011;29669;55.706;37.656;2022-10-30T02:22:32;2.88;;;2.10;;
43813;SDS011;29669;55.706;37.656;2022-10-30T02:25:20;5.38;;;2.92;;
43813;SDS011;29669;55.706;37.656;2022-10-30T02:28:08;4.70;;;2.97;;
43813;SDS011;29669;55.706;37.656;2022-10-30T02:30:56;3.67;;;2.72;;
43813;SDS011;29669;55.706;37.656;2022-10-30T02:33:45;3.05;;;2.75;;
43813;SDS011;29669;55.706;37.656;2022-10-30T02:36:33;4.60;;;3.00;;
43813;SDS011;29669;55.706;37.656;2022-10-30T02:39:21;2.42;;;2.03;;
43813;SDS011;29669;55.706;37.656;2022-10-30T02:42:09;2.50;;;2.05;;
43813;SDS011;29669;55.706;37.656;2022-10-30T02:44:58;2.10;;;1.90;;
43813;SDS011;29669;55.706;37.656;2022-10-30T02:47:45;2.70;;;2.13;;
43813;SDS011;29669;55.706;37.656;2022-10-30T02:50:33;3.15;;;2.53;;
43813;SDS011;29669;55.706;37.656;2022-10-30T02:53:22;6.72;;;3.00;;
43813;SDS011;29669;55.706;37.656;2022-10-30T02:56:11;3.67;;;2.50;;
43813;SDS011;29669;55.706;37.656;2022-10-30T02:59:01;3.60;;;2.58;;
43813;SDS011;29669;55.706;37.656;2022-10-30T03:01:49;3.40;;;1.70;;
43813;SDS011;29669;55.706;37.656;2022-10-30T03:04:38;2.03;;;1.88;;
43813;SDS011;29669;55.706;37.656;2022-10-30T03:07:26;5.47;;;1.88;;
43813;SDS011;29669;55.706;37.656;2022-10-30T03:10:14;2.60;;;1.67;;
43813;SDS011;29669;55.706;37.656;2022-10-30T03:13:02;3.92;;;2.38;;
43813;SDS011;29669;55.706;37.656;2022-10-30T03:15:52;2.65;;;2.28;;
43813;SDS011;29669;55.706;37.656;2022-10-30T03:18:45;1.98;;;1.77;;
43813;SDS011;29669;55.706;37.656;2022-10-30T03:21:34;3.65;;;1.80;;
43813;SDS011;29669;55.706;37.656;2022-10-30T03:24:22;2.38;;;2.17;;
43813;SDS011;29669;55.706;37.656;2022-10-30T03:27:10;2.15;;;2.00;;
43813;SDS011;29669;55.706;37.656;2022-10-30T03:29:59;3.65;;;1.95;;
43813;SDS011;29669;55.706;37.656;2022-10-30T03:32:49;2.10;;;1.92;;
43813;SDS011;29669;55.706;37.656;2022-10-30T03:35:37;2.10;;;1.90;;
43813;SDS011;29669;55.706;37.656;2022-10-30T03:38:25;1.90;;;1.52;;
43813;SDS011;29669;55.706;37.656;2022-10-30T03:41:13;1.30;;;1.20;;
43813;SDS011;29669;55.706;37.656;2022-10-30T03:44:03;4.28;;;1.98;;
43813;SDS011;29669;55.706;37.656;2022-10-30T03:46:51;3.60;;;2.40;;
43813;SDS011;29669;55.706;37.656;2022-10-30T03:49:46;3.58;;;2.05;;
43813;SDS011;29669;55.706;37.656;2022-10-30T03:52:38;3.22;;;2.55;;
43813;SDS011;29669;55.706;37.656;2022-10-30T03:55:26;1.70;;;1.60;;
43813;SDS011;29669;55.706;37.656;2022-10-30T03:58:14;2.72;;;1.60;;
43813;SDS011;29669;55.706;37.656;2022-10-30T04:01:02;1.98;;;1.88;;
43813;SDS011;29669;55.706;37.656;2022-10-30T04:03:55;2.38;;;1.75;;
43813;SDS011;29669;55.706;37.656;2022-10-30T04:06:46;1.60;;;1.40;;
43813;SDS011;29669;55.706;37.656;2022-10-30T04:09:35;4.82;;;1.60;;
43813;SDS011;29669;55.706;37.656;2022-10-30T04:12:24;2.78;;;1.90;;
43813;SDS011;29669;55.706;37.656;2022-10-30T04:15:11;1.52;;;1.42;;
43813;SDS011;29669;55.706;37.656;2022-10-30T04:17:59;2.63;;;1.50;;
43813;SDS011;29669;55.706;37.656;2022-10-30T04:20:49;2.13;;;1.80;;
43813;SDS011;29669;55.706;37.656;2022-10-30T04:23:37;2.03;;;1.50;;
43813;SDS011;29669;55.706;37.656;2022-10-30T04:26:25;1.30;;;1.20;;
43813;SDS011;29669;55.706;37.656;2022-10-30T04:29:13;4.03;;;1.60;;
43813;SDS011;29669;55.706;37.656;2022-10-30T04:32:01;6.90;;;1.60;;
43813;SDS011;29669;55.706;37.656;2022-10-30T04:34:52;4.40;;;1.55;;
43813;SDS011;29669;55.706;37.656;2022-10-30T04:37:40;1.50;;;1.40;;
43813;SDS011;29669;55.706;37.656;2022-10-30T04:40:30;1.33;;;1.20;;
43813;SDS011;29669;55.706;37.656;2022-10-30T04:43:23;0.95;;;0.90;;
43813;SDS011;29669;55.706;37.656;2022-10-30T04:46:12;3.20;;;1.60;;
43813;SDS011;29669;55.706;37.656;2022-10-30T04:48:59;4.00;;;1.27;;
43813;SDS011;29669;55.706;37.656;2022-10-30T04:51:47;1.60;;;1.50;;
43813;SDS011;29669;55.706;37.656;2022-10-30T04:54:37;3.67;;;1.25;;
43813;SDS011;29669;55.706;37.656;2022-10-30T04:57:24;2.15;;;1.45;;
43813;SDS011;29669;55.706;37.656;2022-10-30T05:00:12;1.33;;;1.00;;
43813;SDS011;29669;55.706;37.656;2022-10-30T05:03:01;0.98;;;0.98;;
43813;SDS011;29669;55.706;37.656;2022-10-30T05:05:57;3.70;;;1.30;;
43813;SDS011;29669;55.706;37.656;2022-10-30T05:08:48;1.50;;;1.40;;
43813;SDS011;29669;55.706;37.656;2022-10-30T05:11:49;2.35;;;1.65;;
43813;SDS011;29669;55.706;37.656;2022-10-30T05:14:39;0.93;;;0.93;;
43813;SDS011;29669;55.706;37.656;2022-10-30T05:17:27;1.85;;;1.35;;
43813;SDS011;29669;55.706;37.656;2022-10-30T05:20:19;0.95;;;0.90;;
43813;SDS011;29669;55.706;37.656;2022-10-30T05:23:08;3.58;;;1.38;;
43813;SDS011;29669;55.706;37.656;2022-10-30T05:25:56;1.10;;;1.05;;
43813;SDS011;29669;55.706;37.656;2022-10-30T05:28:46;1.10;;;1.00;;
43813;SDS011;29669;55.706;37.656;2022-10-30T05:31:34;0.90;;;0.90;;
43813;SDS011;29669;55.706;37.656;2022-10-30T05:34:24;0.95;;;0.95;;
43813;SDS011;29669;55.706;37.656;2022-10-30T05:37:13;2.47;;;1.15;;
43813;SDS011;29669;55.706;37.656;2022-10-30T05:40:02;1.20;;;1.10;;
43813;SDS011;29669;55.706;37.656;2022-10-30T05:42:51;2.15;;;1.40;;
43813;SDS011;29669;55.706;37.656;2022-10-30T05:45:39;3.70;;;1.25;;
43813;SDS011;29669;55.706;37.656;2022-10-30T05:48:27;1.67;;;0.90;;
43813;SDS011;29669;55.706;37.656;2022-10-30T05:51:16;2.53;;;1.20;;
43813;SDS011;29669;55.706;37.656;2022-10-30T05:54:10;1.85;;;1.00;;
43813;SDS011;29669;55.706;37.656;2022-10-30T05:57:09;1.42;;;1.30;;
43813;SDS011;29669;55.706;37.656;2022-10-30T05:59:58;0.88;;;0.88;;
43813;SDS011;29669;55.706;37.656;2022-10-30T06:02:46;0.95;;;0.95;;
43813;SDS011;29669;55.706;37.656;2022-10-30T06:05:36;0.98;;;0.98;;
43813;SDS011;29669;55.706;37.656;2022-10-30T06:08:24;1.30;;;1.20;;
43813;SDS011;29669;55.706;37.656;2022-10-30T06:11:15;1.38;;;0.90;;
43813;SDS011;29669;55.706;37.656;2022-10-30T06:14:10;1.30;;;0.98;;
43813;SDS011;29669;55.706;37.656;2022-10-30T06:17:04;1.27;;;1.17;;
43813;SDS011;29669;55.706;37.656;2022-10-30T06:19:52;1.98;;;1.10;;
43813;SDS011;29669;55.706;37.656;2022-10-30T06:23:02;3.90;;;1.47;;
43813;SDS011;29669;55.706;37.656;2022-10-30T06:26:03;3.47;;;1.13;;
43813;SDS011;29669;55.706;37.656;2022-10-30T06:31:49;0.90;;;0.90;;
43813;SDS011;29669;55.706;37.656;2022-10-30T06:34:37;0.80;;;0.80;;
43813;SDS011;29669;55.706;37.656;2022-10-30T06:37:25;0.85;;;0.85;;
43813;SDS011;29669;55.706;37.656;2022-10-30T06:40:13;0.70;;;0.70;;
43813;SDS011;29669;55.706;37.656;2022-10-30T06:43:22;1.05;;;1.00;;
43813;SDS011;29669;55.706;37.656;2022-10-30T06:46:17;0.80;;;0.80;;
43813;SDS011;29669;55.706;37.656;2022-10-30T06:49:05;1.23;;;1.00;;
43813;SDS011;29669;55.706;37.656;2022-10-30T06:51:53;1.02;;;0.93;;
43813;SDS011;29669;55.706;37.656;2022-10-30T06:54:41;1.30;;;0.93;;
43813;SDS011;29669;55.706;37.656;2022-10-30T07:01:18;1.77;;;1.30;;
43813;SDS011;29669;55.706;37.656;2022-10-30T07:04:19;2.60;;;0.80;;
43813;SDS011;29669;55.706;37.656;2022-10-30T07:07:08;1.08;;;1.00;;
43813;SDS011;29669;55.706;37.656;2022-10-30T07:09:56;1.75;;;1.13;;
43813;SDS011;29669;55.706;37.656;2022-10-30T07:13:02;0.60;;;0.60;;
43813;SDS011;29669;55.706;37.656;2022-10-30T07:16:10;0.60;;;0.60;;
43813;SDS011;29669;55.706;37.656;2022-10-30T07:19:01;0.70;;;0.70;;
43813;SDS011;29669;55.706;37.656;2022-10-30T07:21:51;1.10;;;1.10;;
43813;SDS011;29669;55.706;37.656;2022-10-30T07:24:39;0.60;;;0.60;;
43813;SDS011;29669;55.706;37.656;2022-10-30T07:27:45;2.47;;;1.15;;
43813;SDS011;29669;55.706;37.656;2022-10-30T07:30:56;0.80;;;0.80;;
43813;SDS011;29669;55.706;37.656;2022-10-30T07:34:10;0.77;;;0.77;;
43813;SDS011;29669;55.706;37.656;2022-10-30T07:37:21;2.20;;;1.10;;
43813;SDS011;29669;55.706;37.656;2022-10-30T07:40:18;2.08;;;1.15;;
43813;SDS011;29669;55.706;37.656;2022-10-30T07:43:24;2.88;;;1.58;;
43813;SDS011;29669;55.706;37.656;2022-10-30T07:46:21;1.30;;;1.20;;
43813;SDS011;29669;55.706;37.656;2022-10-30T07:49:41;1.15;;;1.10;;
43813;SDS011;29669;55.706;37.656;2022-10-30T07:52:32;1.50;;;1.23;;
43813;SDS011;29669;55.706;37.656;2022-10-30T07:55:20;0.90;;;0.90;;
43813;SDS011;29669;55.706;37.656;2022-10-30T07:58:08;1.45;;;1.35;;
43813;SDS011;29669;55.706;37.656;2022-10-30T08:01:14;2.17;;;1.10;;
43813;SDS011;29669;55.706;37.656;2022-10-30T08:04:03;1.77;;;1.00;;
43813;SDS011;29669;55.706;37.656;2022-10-30T08:06:52;1.15;;;1.05;;
43813;SDS011;29669;55.706;37.656;2022-10-30T08:09:40;1.10;;;0.90;;
43813;SDS011;29669;55.706;37.656;2022-10-30T08:12:27;1.13;;;1.00;;
43813;SDS011;29669;55.706;37.656;2022-10-30T08:15:15;1.30;;;1.20;;
43813;SDS011;29669;55.706;37.656;2022-10-30T08:18:03;1.10;;;1.00;;
43813;SDS011;29669;55.706;37.656;2022-10-30T08:20:53;0.98;;;0.90;;
43813;SDS011;29669;55.706;37.656;2022-10-30T08:23:40;0.90;;;0.90;;
43813;SDS011;29669;55.706;37.656;2022-10-30T08:26:33;0.80;;;0.80;;
43813;SDS011;29669;55.706;37.656;2022-10-30T08:29:22;1.70;;;1.30;;
43813;SDS011;29669;55.706;37.656;2022-10-30T08:32:11;1.45;;;1.27;;
43813;SDS011;29669;55.706;37.656;2022-10-30T08:35:17;1.30;;;1.20;;
43813;SDS011;29669;55.706;37.656;2022-10-30T08:38:06;6.45;;;1.38;;
43813;SDS011;29669;55.706;37.656;2022-10-30T08:41:12;1.55;;;1.05;;
43813;SDS011;29669;55.706;37.656;2022-10-30T08:44:05;1.33;;;1.00;;
43813;SDS011;29669;55.706;37.656;2022-10-30T08:47:12;1.52;;;1.05;;
43813;SDS011;29669;55.706;37.656;2022-10-30T08:50:00;2.47;;;0.98;;
43813;SDS011;29669;55.706;37.656;2022-10-30T08:52:51;3.30;;;1.33;;
43813;SDS011;29669;55.706;37.656;2022-10-30T08:55:41;0.88;;;0.88;;
43813;SDS011;29669;55.706;37.656;2022-10-30T08:58:37;0.85;;;0.85;;
43813;SDS011;29669;55.706;37.656;2022-10-30T09:01:25;4.85;;;1.23;;
43813;SDS011;29669;55.706;37.656;2022-10-30T09:04:32;2.28;;;1.27;;
43813;SDS011;29669;55.706;37.656;2022-10-30T09:07:38;2.50;;;1.10;;
43813;SDS011;29669;55.706;37.656;2022-10-30T09:10:58;1.73;;;1.63;;
43813;SDS011;29669;55.706;37.656;2022-10-30T09:13:46;1.92;;;1.50;;
43813;SDS011;29669;55.706;37.656;2022-10-30T09:16:34;3.20;;;1.10;;
43813;SDS011;29669;55.706;37.656;2022-10-30T09:19:22;1.20;;;1.10;;
43813;SDS011;29669;55.706;37.656;2022-10-30T09:22:10;0.90;;;0.90;;
43813;SDS011;29669;55.706;37.656;2022-10-30T09:25:00;1.05;;;1.00;;
43813;SDS011;29669;55.706;37.656;2022-10-30T09:28:23;0.60;;;0.60;;
43813;SDS011;29669;55.706;37.656;2022-10-30T09:31:34;2.55;;;1.52;;
43813;SDS011;29669;55.706;37.656;2022-10-30T09:34:28;1.00;;;1.00;;
43813;SDS011;29669;55.706;37.656;2022-10-30T09:37:43;1.60;;;1.08;;
43813;SDS011;29669;55.706;37.656;2022-10-30T09:43:42;3.42;;;1.30;;
43813;SDS011;29669;55.706;37.656;2022-10-30T09:46:53;0.90;;;0.90;;
43813;SDS011;29669;55.706;37.656;2022-10-30T09:52:56;0.98;;;0.98;;
43813;SDS011;29669;55.706;37.656;2022-10-30T09:56:11;0.90;;;0.90;;
43813;SDS011;29669;55.706;37.656;2022-10-30T09:59:24;1.17;;;1.05;;
43813;SDS011;29669;55.706;37.656;2022-10-30T10:02:33;3.50;;;1.00;;
43813;SDS011;29669;55.706;37.656;2022-10-30T10:05:28;3.05;;;1.50;;
43813;SDS011;29669;55.706;37.656;2022-10-30T10:12:54;1.05;;;1.05;;
43813;SDS011;29669;55.706;37.656;2022-10-30T10:18:44;1.85;;;1.17;;
43813;SDS011;29669;55.706;37.656;2022-10-30T10:21:34;1.38;;;0.95;;
43813;SDS011;29669;55.706;37.656;2022-10-30T10:24:30;1.17;;;1.07;;
43813;SDS011;29669;55.706;37.656;2022-10-30T10:36:57;0.60;;;0.60;;
43813;SDS011;29669;55.706;37.656;2022-10-30T10:40:18;1.90;;;1.15;;
43813;SDS011;29669;55.706;37.656;2022-10-30T10:46:45;1.00;;;1.00;;
43813;SDS011;29669;55.706;37.656;2022-10-30T10:53:04;2.05;;;0.80;;
43813;SDS011;29669;55.706;37.656;2022-10-30T10:55:58;1.25;;;0.90;;
43813;SDS011;29669;55.706;37.656;2022-10-30T10:58:48;1.45;;;1.00;;
43813;SDS011;29669;55.706;37.656;2022-10-30T11:01:42;1.90;;;0.93;;
43813;SDS011;29669;55.706;37.656;2022-10-30T11:04:46;0.80;;;0.80;;
43813;SDS011;29669;55.706;37.656;2022-10-30T11:07:38;0.85;;;0.85;;
43813;SDS011;29669;55.706;37.656;2022-10-30T11:10:33;1.58;;;0.93;;
43813;SDS011;29669;55.706;37.656;2022-10-30T11:13:21;0.93;;;0.90;;
43813;SDS011;29669;55.706;37.656;2022-10-30T11:19:10;3.03;;;0.80;;
43813;SDS011;29669;55.706;37.656;2022-10-30T11:21:58;0.90;;;0.90;;
43813;SDS011;29669;55.706;37.656;2022-10-30T11:24:47;0.95;;;0.90;;
43813;SDS011;29669;55.706;37.656;2022-10-30T11:27:34;0.80;;;0.80;;
43813;SDS011;29669;55.706;37.656;2022-10-30T11:30:24;0.70;;;0.70;;
43813;SDS011;29669;55.706;37.656;2022-10-30T11:33:21;0.80;;;0.80;;
43813;SDS011;29669;55.706;37.656;2022-10-30T11:36:09;2.20;;;0.80;;
43813;SDS011;29669;55.706;37.656;2022-10-30T11:39:08;0.70;;;0.70;;
43813;SDS011;29669;55.706;37.656;2022-10-30T11:41:58;0.70;;;0.70;;
43813;SDS011;29669;55.706;37.656;2022-10-30T11:44:51;2.20;;;0.90;;
43813;SDS011;29669;55.706;37.656;2022-10-30T11:47:40;0.80;;;0.80;;
43813;SDS011;29669;55.706;37.656;2022-10-30T11:50:29;0.93;;;0.90;;
43813;SDS011;29669;55.706;37.656;2022-10-30T11:53:20;0.90;;;0.90;;
43813;SDS011;29669;55.706;37.656;2022-10-30T11:56:13;0.70;;;0.70;;
43813;SDS011;29669;55.706;37.656;2022-10-30T11:59:03;0.90;;;0.90;;
43813;SDS011;29669;55.706;37.656;2022-10-30T12:02:02;0.85;;;0.85;;
43813;SDS011;29669;55.706;37.656;2022-10-30T12:05:28;3.15;;;1.10;;
43813;SDS011;29669;55.706;37.656;2022-10-30T12:08:15;0.85;;;0.80;;
43813;SDS011;29669;55.706;37.656;2022-10-30T12:11:05;0.85;;;0.85;;
43813;SDS011;29669;55.706;37.656;2022-10-30T12:13:55;2.05;;;0.85;;
43813;SDS011;29669;55.706;37.656;2022-10-30T12:16:44;0.85;;;0.85;;
43813;SDS011;29669;55.706;37.656;2022-10-30T12:19:34;1.48;;;0.80;;
43813;SDS011;29669;55.706;37.656;2022-10-30T12:22:22;0.82;;;0.80;;
43813;SDS011;29669;55.706;37.656;2022-10-30T12:28:13;1.17;;;1.08;;
43813;SDS011;29669;55.706;37.656;2022-10-30T12:37:33;3.17;;;1.60;;
43813;SDS011;29669;55.706;37.656;2022-10-30T12:40:34;2.10;;;1.15;;
43813;SDS011;29669;55.706;37.656;2022-10-30T12:43:28;0.80;;;0.80;;
43813;SDS011;29669;55.706;37.656;2022-10-30T12:52:42;2.20;;;0.98;;
43813;SDS011;29669;55.706;37.656;2022-10-30T12:55:37;1.58;;;1.00;;
43813;SDS011;29669;55.706;37.656;2022-10-30T12:58:40;2.00;;;0.98;;
43813;SDS011;29669;55.706;37.656;2022-10-30T13:01:35;0.98;;;0.85;;
43813;SDS011;29669;55.706;37.656;2022-10-30T13:04:38;0.75;;;0.75;;
43813;SDS011;29669;55.706;37.656;2022-10-30T13:10:33;0.65;;;0.65;;
43813;SDS011;29669;55.706;37.656;2022-10-30T13:13:36;0.80;;;0.80;;
43813;SDS011;29669;55.706;37.656;2022-10-30T13:16:28;0.85;;;0.80;;
43813;SDS011;29669;55.706;37.656;2022-10-30T13:19:17;0.60;;;0.60;;
43813;SDS011;29669;55.706;37.656;2022-10-30T13:22:19;0.80;;;0.80;;
43813;SDS011;29669;55.706;37.656;2022-10-30T13:32:09;0.65;;;0.65;;
43813;SDS011;29669;55.706;37.656;2022-10-30T13:40:40;0.70;;;0.70;;
43813;SDS011;29669;55.706;37.656;2022-10-30T13:46:42;0.60;;;0.60;;
43813;SDS011;29669;55.706;37.656;2022-10-30T13:49:55;0.60;;;0.60;;
43813;SDS011;29669;55.706;37.656;2022-10-30T13:52:55;0.60;;;0.60;;
43813;SDS011;29669;55.706;37.656;2022-10-30T13:55:46;0.80;;;0.80;;
43813;SDS011;29669;55.706;37.656;2022-10-30T13:58:39;5.53;;;1.20;;
43813;SDS011;29669;55.706;37.656;2022-10-30T14:05:33;2.10;;;1.10;;
43813;SDS011;29669;55.706;37.656;2022-10-30T14:11:14;0.80;;;0.80;;
43813;SDS011;29669;55.706;37.656;2022-10-30T14:17:15;1.00;;;1.00;;
43813;SDS011;29669;55.706;37.656;2022-10-30T14:23:11;0.63;;;0.63;;
43813;SDS011;29669;55.706;37.656;2022-10-30T14:28:51;3.60;;;1.15;;
43813;SDS011;29669;55.706;37.656;2022-10-30T14:31:42;2.05;;;0.85;;
43813;SDS011;29669;55.706;37.656;2022-10-30T14:34:42;0.70;;;0.70;;
43813;SDS011;29669;55.706;37.656;2022-10-30T14:40:36;1.02;;;0.95;;
43813;SDS011;29669;55.706;37.656;2022-10-30T14:43:34;0.80;;;0.80;;
43813;SDS011;29669;55.706;37.656;2022-10-30T14:46:36;1.08;;;1.00;;
43813;SDS011;29669;55.706;37.656;2022-10-30T14:56:49;2.25;;;1.20;;
43813;SDS011;29669;55.706;37.656;2022-10-30T14:59:33;1.30;;;1.20;;
43813;SDS011;29669;55.706;37.656;2022-10-30T15:02:29;1.30;;;1.20;;
43813;SDS011;29669;55.706;37.656;2022-10-30T15:14:43;0.80;;;0.80;;
43813;SDS011;29669;55.706;37.656;2022-10-30T15:17:45;1.00;;;1.00;;
43813;SDS011;29669;55.706;37.656;2022-10-30T15:20:36;2.17;;;1.17;;
43813;SDS011;29669;55.706;37.656;2022-10-30T15:23:28;1.10;;;1.10;;
43813;SDS011;29669;55.706;37.656;2022-10-30T15:26:19;0.85;;;0.68;;
43813;SDS011;29669;55.706;37.656;2022-10-30T15:29:14;0.90;;;0.90;;
43813;SDS011;29669;55.706;37.656;2022-10-30T15:32:17;6.28;;;1.30;;
43813;SDS011;29669;55.706;37.656;2022-10-30T15:38:23;1.88;;;1.40;;
43813;SDS011;29669;55.706;37.656;2022-10-30T15:41:13;1.02;;;0.90;;
43813;SDS011;29669;55.706;37.656;2022-10-30T15:44:08;3.27;;;1.47;;
43813;SDS011;29669;55.706;37.656;2022-10-30T15:46:58;2.33;;;1.50;;
43813;SDS011;29669;55.706;37.656;2022-10-30T15:49:51;4.70;;;1.17;;
43813;SDS011;29669;55.706;37.656;2022-10-30T15:52:42;4.88;;;1.20;;
43813;SDS011;29669;55.706;37.656;2022-10-30T15:55:31;1.55;;;1.15;;
43813;SDS011;29669;55.706;37.656;2022-10-30T15:58:20;1.30;;;1.00;;
43813;SDS011;29669;55.706;37.656;2022-10-30T16:01:51;2.30;;;1.33;;
43813;SDS011;29669;55.706;37.656;2022-10-30T16:05:19;2.35;;;1.58;;
43813;SDS011;29669;55.706;37.656;2022-10-30T16:08:23;1.42;;;1.10;;
43813;SDS011;29669;55.706;37.656;2022-10-30T16:11:17;1.58;;;1.30;;
43813;SDS011;29669;55.706;37.656;2022-10-30T16:14:36;1.50;;;1.33;;
43813;SDS011;29669;55.706;37.656;2022-10-30T16:17:28;2.22;;;1.55;;
43813;SDS011;29669;55.706;37.656;2022-10-30T16:20:20;1.17;;;1.08;;
43813;SDS011;29669;55.706;37.656;2022-10-30T16:23:08;1.00;;;0.90;;
43813;SDS011;29669;55.706;37.656;2022-10-30T16:25:57;1.98;;;1.42;;
43813;SDS011;29669;55.706;37.656;2022-10-30T16:28:46;1.58;;;1.38;;
43813;SDS011;29669;55.706;37.656;2022-10-30T16:31:34;2.65;;;1.10;;
43813;SDS011;29669;55.706;37.656;2022-10-30T16:34:27;0.70;;;0.70;;
43813;SDS011;29669;55.706;37.656;2022-10-30T16:37:24;1.30;;;1.20;;
43813;SDS011;29669;55.706;37.656;2022-10-30T16:40:15;1.00;;;0.90;;
43813;SDS011;29669;55.706;37.656;2022-10-30T16:43:05;0.60;;;0.60;;
43813;SDS011;29669;55.706;37.656;2022-10-30T16:46:32;0.82;;;0.70;;
43813;SDS011;29669;55.706;37.656;2022-10-30T16:49:25;0.90;;;0.90;;
43813;SDS011;29669;55.706;37.656;2022-10-30T16:52:16;1.00;;;1.00;;
43813;SDS011;29669;55.706;37.656;2022-10-30T16:55:28;0.95;;;0.95;;
43813;SDS011;29669;55.706;37.656;2022-10-30T16:58:15;0.75;;;0.75;;
43813;SDS011;29669;55.706;37.656;2022-10-30T17:01:04;1.55;;;1.00;;
43813;SDS011;29669;55.706;37.656;2022-10-30T17:03:53;1.23;;;0.95;;
43813;SDS011;29669;55.706;37.656;2022-10-30T17:06:43;2.40;;;0.90;;
43813;SDS011;29669;55.706;37.656;2022-10-30T17:09:35;0.93;;;0.93;;
43813;SDS011;29669;55.706;37.656;2022-10-30T17:12:25;0.80;;;0.77;;
43813;SDS011;29669;55.706;37.656;2022-10-30T17:15:16;0.50;;;0.50;;
43813;SDS011;29669;55.706;37.656;2022-10-30T17:18:08;0.70;;;0.70;;
43813;SDS011;29669;55.706;37.656;2022-10-30T17:21:03;2.13;;;1.00;;
43813;SDS011;29669;55.706;37.656;2022-10-30T17:26:44;0.73;;;0.70;;
43813;SDS011;29669;55.706;37.656;2022-10-30T17:29:51;0.63;;;0.63;;
43813;SDS011;29669;55.706;37.656;2022-10-30T17:32:41;0.80;;;0.80;;
43813;SDS011;29669;55.706;37.656;2022-10-30T17:35:32;4.55;;;0.98;;
43813;SDS011;29669;55.706;37.656;2022-10-30T17:38:20;0.70;;;0.70;;
43813;SDS011;29669;55.706;37.656;2022-10-30T17:41:08;1.00;;;1.00;;
43813;SDS011;29669;55.706;37.656;2022-10-30T17:44:00;1.27;;;1.17;;
43813;SDS011;29669;55.706;37.656;2022-10-30T17:46:48;1.05;;;0.80;;
43813;SDS011;29669;55.706;37.656;2022-10-30T17:49:38;0.63;;;0.63;;
43813;SDS011;29669;55.706;37.656;2022-10-30T17:52:25;0.68;;;0.68;;
43813;SDS011;29669;55.706;37.656;2022-10-30T17:55:21;1.42;;;1.30;;
43813;SDS011;29669;55.706;37.656;2022-10-30T17:58:12;3.28;;;0.95;;
43813;SDS011;29669;55.706;37.656;2022-10-30T18:00:59;0.70;;;0.70;;
43813;SDS011;29669;55.706;37.656;2022-10-30T18:03:48;2.35;;;1.02;;
43813;SDS011;29669;55.706;37.656;2022-10-30T18:06:36;1.48;;;1.17;;
43813;SDS011;29669;55.706;37.656;2022-10-30T18:09:23;1.35;;;1.00;;
43813;SDS011;29669;55.706;37.656;2022-10-30T18:12:14;0.90;;;0.90;;
43813;SDS011;29669;55.706;37.656;2022-10-30T18:15:12;1.08;;;0.98;;
43813;SDS011;29669;55.706;37.656;2022-10-30T18:18:05;0.73;;;0.60;;
43813;SDS011;29669;55.706;37.656;2022-10-30T18:20:53;0.82;;;0.82;;
43813;SDS011;29669;55.706;37.656;2022-10-30T18:23:40;1.60;;;0.65;;
43813;SDS011;29669;55.706;37.656;2022-10-30T18:26:44;0.98;;;0.90;;
43813;SDS011;29669;55.706;37.656;2022-10-30T18:29:32;0.90;;;0.90;;
43813;SDS011;29669;55.706;37.656;2022-10-30T18:32:20;1.05;;;0.90;;
43813;SDS011;29669;55.706;37.656;2022-10-30T18:35:12;0.63;;;0.63;;
43813;SDS011;29669;55.706;37.656;2022-10-30T18:38:07;1.30;;;0.95;;
43813;SDS011;29669;55.706;37.656;2022-10-30T18:41:01;1.45;;;1.17;;
43813;SDS011;29669;55.706;37.656;2022-10-30T18:43:49;0.73;;;0.73;;
43813;SDS011;29669;55.706;37.656;2022-10-30T18:46:37;0.73;;;0.73;;
43813;SDS011;29669;55.706;37.656;2022-10-30T18:49:25;1.20;;;0.80;;
43813;SDS011;29669;55.706;37.656;2022-10-30T18:52:15;0.77;;;0.77;;
43813;SDS011;29669;55.706;37.656;2022-10-30T18:58:06;0.70;;;0.70;;
43813;SDS011;29669;55.706;37.656;2022-10-30T19:00:54;0.90;;;0.90;;
43813;SDS011;29669;55.706;37.656;2022-10-30T19:03:57;2.28;;;0.70;;
43813;SDS011;29669;55.706;37.656;2022-10-30T19:06:50;1.00;;;1.00;;
43813;SDS011;29669;55.706;37.656;2022-10-30T19:09:37;2.10;;;0.80;;
43813;SDS011;29669;55.706;37.656;2022-10-30T19:12:26;0.50;;;0.50;;
43813;SDS011;29669;55.706;37.656;2022-10-30T19:15:18;0.40;;;0.40;;
43813;SDS011;29669;55.706;37.656;2022-10-30T19:18:09;0.80;;;0.80;;
43813;SDS011;29669;55.706;37.656;2022-10-30T19:20:57;0.70;;;0.70;;
43813;SDS011;29669;55.706;37.656;2022-10-30T19:23:56;0.60;;;0.60;;